createdAt,value
2018-09-17T00:00:12.472Z,11.30
2018-09-17T00:02:40.690Z,11.10
2018-09-17T00:05:09.453Z,11.00
2018-09-17T00:07:37.647Z,11.20
2018-09-17T00:10:06.376Z,11.40
2018-09-17T00:12:34.934Z,11.60
2018-09-17T00:15:03.102Z,11.60
2018-09-17T00:17:31.261Z,11.50
2018-09-17T00:19:59.441Z,11.50
2018-09-17T00:22:27.650Z,11.50
2018-09-17T00:24:57.332Z,11.70
2018-09-17T00:27:25.552Z,11.70
2018-09-17T00:29:54.624Z,11.80
2018-09-17T00:32:22.782Z,11.90
2018-09-17T00:34:51.933Z,11.80
2018-09-17T00:37:20.146Z,11.70
2018-09-17T00:39:48.522Z,11.70
2018-09-17T00:42:16.687Z,11.30
2018-09-17T00:44:45.102Z,11.20
2018-09-17T00:47:13.281Z,11.20
2018-09-17T00:49:41.464Z,11.20
2018-09-17T00:52:09.674Z,11.10
2018-09-17T00:54:37.864Z,11.20
2018-09-17T00:57:05.989Z,11.40
2018-09-17T00:59:34.104Z,11.50
2018-09-17T01:02:02.620Z,11.30
2018-09-17T01:04:31.704Z,11.00
2018-09-17T01:07:00.628Z,11.10
2018-09-17T01:09:34.161Z,11.20
2018-09-17T01:12:02.316Z,11.30
2018-09-17T01:14:30.456Z,11.10
2018-09-17T01:16:58.644Z,11.00
2018-09-17T01:19:28.392Z,11.00
2018-09-17T01:21:56.921Z,10.90
2018-09-17T01:24:25.064Z,10.90
2018-09-17T01:26:53.963Z,10.90
2018-09-17T01:29:23.154Z,10.90
2018-09-17T01:31:51.354Z,11.00
2018-09-17T01:34:19.834Z,11.00
2018-09-17T01:36:48.066Z,11.00
2018-09-17T01:39:16.235Z,11.00
2018-09-17T01:41:45.249Z,11.10
2018-09-17T01:44:13.817Z,11.20
2018-09-17T01:46:42.476Z,11.10
2018-09-17T01:49:10.637Z,11.10
2018-09-17T01:51:38.832Z,11.10
2018-09-17T01:54:07.496Z,11.10
2018-09-17T01:56:35.696Z,11.10
2018-09-17T01:59:03.975Z,11.10
2018-09-17T02:01:32.172Z,11.00
2018-09-17T02:04:00.684Z,11.00
2018-09-17T02:06:28.840Z,10.90
2018-09-17T02:08:57.104Z,10.80
2018-09-17T02:11:26.083Z,10.80
2018-09-17T02:13:54.564Z,10.80
2018-09-17T02:16:22.735Z,10.80
2018-09-17T02:18:50.857Z,10.60
2018-09-17T02:21:19.088Z,10.50
2018-09-17T02:23:47.280Z,10.60
2018-09-17T02:26:15.476Z,10.70
2018-09-17T02:28:43.614Z,10.80
2018-09-17T02:31:11.768Z,10.90
2018-09-17T02:33:39.925Z,11.10
2018-09-17T02:36:08.097Z,11.00
2018-09-17T02:38:36.238Z,11.10
2018-09-17T02:41:05.412Z,11.20
2018-09-17T02:43:33.945Z,11.30
2018-09-17T02:46:03.285Z,11.30
2018-09-17T02:48:32.087Z,11.20
2018-09-17T02:51:00.231Z,11.00
2018-09-17T02:53:28.403Z,10.90
2018-09-17T02:55:56.611Z,10.90
2018-09-17T02:58:24.811Z,10.70
2018-09-17T03:00:52.988Z,10.70
2018-09-17T03:03:21.177Z,10.90
2018-09-17T03:05:53.562Z,11.00
2018-09-17T03:08:22.483Z,11.20
2018-09-17T03:10:50.725Z,11.40
2018-09-17T03:13:19.360Z,11.30
2018-09-17T03:15:51.182Z,11.20
2018-09-17T03:18:57.830Z,11.20
2018-09-17T03:21:26.065Z,11.10
2018-09-17T03:23:54.657Z,11.10
2018-09-17T03:26:23.344Z,11.10
2018-09-17T03:28:52.830Z,11.00
2018-09-17T03:31:21.017Z,11.00
2018-09-17T03:33:49.169Z,10.90
2018-09-17T03:36:17.329Z,11.00
2018-09-17T03:38:46.668Z,11.00
2018-09-17T03:41:15.376Z,11.00
2018-09-17T03:43:46.009Z,11.00
2018-09-17T03:46:14.274Z,11.10
2018-09-17T03:48:42.757Z,11.00
2018-09-17T03:51:11.544Z,11.00
2018-09-17T03:53:39.920Z,11.10
2018-09-17T03:56:08.069Z,11.10
2018-09-17T03:58:36.240Z,11.00
2018-09-17T04:01:04.712Z,10.90
2018-09-17T04:03:33.133Z,10.50
2018-09-17T04:06:01.806Z,10.30
2018-09-17T04:08:30.902Z,10.30
2018-09-17T04:10:59.116Z,10.20
2018-09-17T04:13:27.304Z,10.30
2018-09-17T04:15:56.251Z,10.30
2018-09-17T04:18:24.424Z,10.30
2018-09-17T04:20:52.689Z,10.40
2018-09-17T04:23:25.105Z,10.40
2018-09-17T04:25:53.635Z,10.30
2018-09-17T04:28:21.840Z,10.30
2018-09-17T04:30:50.985Z,10.20
2018-09-17T04:33:19.577Z,10.20
2018-09-17T04:35:48.077Z,10.30
2018-09-17T04:38:16.484Z,10.30
2018-09-17T04:40:44.664Z,10.30
2018-09-17T04:43:12.882Z,10.40
2018-09-17T04:45:41.105Z,10.40
2018-09-17T04:48:09.244Z,10.20
2018-09-17T04:50:37.940Z,10.00
2018-09-17T04:53:06.104Z,9.90
2018-09-17T04:55:34.285Z,9.80
2018-09-17T04:58:02.643Z,9.80
2018-09-17T05:00:30.866Z,9.80
2018-09-17T05:02:59.048Z,9.80
2018-09-17T05:05:27.201Z,9.70
2018-09-17T05:07:55.452Z,9.70
2018-09-17T05:10:25.262Z,9.70
2018-09-17T05:12:54.428Z,9.80
2018-09-17T05:15:22.546Z,9.90
2018-09-17T05:17:50.746Z,10.00
2018-09-17T05:20:19.891Z,10.00
2018-09-17T05:22:48.057Z,10.10
2018-09-17T05:25:16.815Z,10.10
2018-09-17T05:27:45.610Z,10.20
2018-09-17T05:30:13.852Z,10.50
2018-09-17T05:32:42.045Z,10.90
2018-09-17T05:35:10.835Z,11.30
2018-09-17T05:37:38.920Z,11.70
2018-09-17T05:40:07.126Z,12.00
2018-09-17T05:42:35.265Z,12.30
2018-09-17T05:45:04.714Z,12.60
2018-09-17T05:47:32.933Z,12.70
2018-09-17T05:50:01.089Z,12.60
2018-09-17T05:52:29.585Z,12.60
2018-09-17T05:54:57.740Z,12.60
2018-09-17T05:57:25.922Z,12.60
2018-09-17T05:59:54.115Z,12.80
2018-09-17T06:02:22.241Z,13.20
2018-09-17T06:04:50.419Z,13.80
2018-09-17T06:07:19.031Z,14.50
2018-09-17T06:09:47.273Z,15.20
2018-09-17T06:12:15.386Z,15.90
2018-09-17T06:14:43.568Z,16.40
2018-09-17T06:17:11.943Z,16.70
2018-09-17T06:19:40.108Z,17.00
2018-09-17T06:22:08.280Z,17.50
2018-09-17T06:24:37.416Z,18.10
2018-09-17T06:27:05.602Z,18.90
2018-09-17T06:29:33.788Z,19.70
2018-09-17T06:32:02.644Z,20.20
2018-09-17T06:34:30.836Z,20.70
2018-09-17T06:36:59.023Z,21.20
2018-09-17T06:39:27.221Z,21.70
2018-09-17T06:41:56.197Z,22.10
2018-09-17T06:44:25.414Z,22.80
2018-09-17T06:46:53.884Z,23.10
2018-09-17T06:49:22.056Z,23.50
2018-09-17T06:51:50.584Z,23.80
2018-09-17T06:54:18.797Z,24.00
2018-09-17T06:56:46.998Z,24.20
2018-09-17T06:59:15.109Z,24.40
2018-09-17T07:01:43.620Z,24.30
2018-09-17T07:04:11.973Z,24.00
2018-09-17T07:06:40.115Z,24.00
2018-09-17T07:09:11.018Z,24.20
2018-09-17T07:11:39.489Z,24.40
2018-09-17T07:14:07.920Z,24.90
2018-09-17T07:16:36.100Z,25.70
2018-09-17T07:19:04.261Z,26.00
2018-09-17T07:21:32.956Z,26.30
2018-09-17T07:24:02.664Z,26.50
2018-09-17T07:26:30.822Z,27.00
2018-09-17T07:28:59.403Z,27.10
2018-09-17T07:31:28.363Z,27.20
2018-09-17T07:33:56.504Z,27.30
2018-09-17T07:36:24.785Z,27.40
2018-09-17T07:38:53.180Z,27.60
2018-09-17T07:41:21.774Z,27.50
2018-09-17T07:43:49.905Z,27.80
2018-09-17T07:46:18.076Z,28.20
2018-09-17T07:48:46.273Z,28.30
2018-09-17T07:51:14.595Z,28.30
2018-09-17T07:53:43.829Z,28.20
2018-09-17T07:56:12.009Z,28.40
2018-09-17T07:58:40.443Z,28.80
2018-09-17T08:01:08.688Z,29.10
2018-09-17T08:03:36.921Z,29.70
2018-09-17T08:06:05.047Z,30.10
2018-09-17T08:08:33.319Z,30.80
2018-09-17T08:11:01.518Z,31.40
2018-09-17T08:13:29.671Z,32.10
2018-09-17T08:15:57.817Z,32.50
2018-09-17T08:18:26.016Z,33.00
2018-09-17T08:20:54.170Z,33.30
2018-09-17T08:23:22.281Z,33.50
2018-09-17T08:25:50.492Z,33.80
2018-09-17T08:28:18.642Z,33.30
2018-09-17T08:30:46.788Z,32.10
2018-09-17T08:33:14.961Z,32.10
2018-09-17T08:35:43.146Z,32.30
2018-09-17T08:38:11.404Z,33.00
2018-09-17T08:40:39.889Z,33.20
2018-09-17T08:43:08.081Z,33.70
2018-09-17T08:45:36.287Z,34.40
2018-09-17T08:48:04.463Z,34.60
2018-09-17T08:50:32.605Z,35.10
2018-09-17T08:53:01.846Z,35.40
2018-09-17T08:55:35.256Z,35.20
2018-09-17T08:58:09.532Z,34.90
2018-09-17T09:00:43.268Z,34.60
2018-09-17T09:03:11.446Z,35.20
2018-09-17T09:05:42.931Z,35.30
2018-09-17T09:08:11.153Z,35.00
2018-09-17T09:10:44.916Z,35.60
2018-09-17T09:13:18.565Z,36.10
2018-09-17T09:15:46.845Z,36.20
2018-09-17T09:18:15.128Z,36.10
2018-09-17T09:20:43.446Z,36.10
2018-09-17T09:23:11.738Z,35.50
2018-09-17T09:25:39.997Z,35.50
2018-09-17T09:28:10.233Z,35.30
2018-09-17T09:30:47.058Z,35.10
2018-09-17T09:33:15.371Z,35.00
2018-09-17T09:35:43.612Z,34.70
2018-09-17T09:38:12.691Z,35.30
2018-09-17T09:40:40.857Z,35.60
2018-09-17T09:43:09.024Z,35.70
2018-09-17T09:45:37.192Z,35.80
2018-09-17T09:48:05.532Z,35.50
2018-09-17T09:50:33.704Z,35.80
2018-09-17T09:53:01.857Z,36.90
2018-09-17T09:55:30.006Z,37.70
2018-09-17T09:57:58.169Z,37.00
2018-09-17T10:00:31.556Z,36.60
2018-09-17T10:03:06.800Z,35.30
2018-09-17T10:05:36.014Z,34.60
2018-09-17T10:08:04.193Z,35.10
2018-09-17T10:10:37.745Z,35.50
2018-09-17T10:13:11.411Z,35.80
2018-09-17T10:15:44.969Z,35.00
2018-09-17T10:18:18.601Z,34.10
2018-09-17T10:20:46.765Z,34.30
2018-09-17T10:23:14.988Z,35.00
2018-09-17T10:25:43.093Z,35.50
2018-09-17T10:28:11.335Z,36.00
2018-09-17T10:30:39.451Z,36.30
2018-09-17T10:33:07.945Z,36.00
2018-09-17T10:35:36.094Z,36.30
2018-09-17T10:38:04.300Z,34.50
2018-09-17T10:40:32.482Z,32.90
2018-09-17T10:43:00.657Z,32.70
2018-09-17T10:45:28.834Z,33.40
2018-09-17T10:47:57.008Z,34.40
2018-09-17T10:50:25.668Z,34.10
2018-09-17T10:52:54.544Z,34.70
2018-09-17T10:55:22.683Z,35.40
2018-09-17T10:57:51.716Z,34.60
2018-09-17T11:00:21.042Z,34.60
2018-09-17T11:02:49.177Z,34.40
2018-09-17T11:05:17.725Z,34.60
2018-09-17T11:07:45.886Z,35.00
2018-09-17T11:10:14.089Z,35.40
2018-09-17T11:12:42.250Z,35.50
2018-09-17T11:15:10.804Z,35.80
2018-09-17T11:17:38.966Z,35.30
2018-09-17T11:20:07.132Z,35.00
2018-09-17T11:22:35.304Z,34.70
2018-09-17T11:25:04.162Z,34.00
2018-09-17T11:27:32.248Z,34.10
2018-09-17T11:30:00.452Z,34.40
2018-09-17T11:32:28.641Z,34.20
2018-09-17T11:34:57.183Z,34.20
2018-09-17T11:37:25.737Z,34.30
2018-09-17T11:39:53.880Z,34.30
2018-09-17T11:42:22.346Z,34.30
2018-09-17T11:44:50.544Z,34.60
2018-09-17T11:47:18.689Z,34.60
2018-09-17T11:49:46.845Z,34.60
2018-09-17T11:52:14.989Z,34.60
2018-09-17T11:54:43.169Z,34.50
2018-09-17T11:57:11.317Z,34.30
2018-09-17T11:59:40.070Z,34.70
2018-09-17T12:02:13.801Z,34.90
2018-09-17T12:04:47.400Z,34.20
2018-09-17T12:07:21.280Z,33.80
2018-09-17T12:09:49.432Z,33.30
2018-09-17T12:12:17.573Z,33.70
2018-09-17T12:14:46.492Z,34.00
2018-09-17T12:17:14.648Z,34.40
2018-09-17T12:19:42.793Z,34.20
2018-09-17T12:22:10.952Z,34.30
2018-09-17T12:24:39.130Z,34.00
2018-09-17T12:27:07.871Z,33.50
2018-09-17T12:29:36.056Z,33.40
2018-09-17T12:32:04.600Z,33.00
2018-09-17T12:34:32.753Z,32.90
2018-09-17T12:37:01.772Z,32.70
2018-09-17T12:39:29.978Z,32.40
2018-09-17T12:41:58.341Z,32.60
2018-09-17T12:44:26.508Z,32.60
2018-09-17T12:46:54.740Z,32.60
2018-09-17T12:49:22.920Z,33.00
2018-09-17T12:51:51.585Z,32.90
2018-09-17T12:54:19.823Z,32.60
2018-09-17T12:56:47.983Z,32.70
2018-09-17T12:59:16.145Z,32.20
2018-09-17T13:01:44.323Z,31.90
2018-09-17T13:04:12.748Z,31.70
2018-09-17T13:06:40.918Z,31.90
2018-09-17T13:09:10.197Z,32.80
2018-09-17T13:11:38.394Z,33.70
2018-09-17T13:14:06.581Z,33.20
2018-09-17T13:16:37.694Z,32.70
2018-09-17T13:19:06.905Z,32.50
2018-09-17T13:21:35.061Z,32.40
2018-09-17T13:24:04.180Z,32.90
2018-09-17T13:26:32.364Z,33.20
2018-09-17T13:29:00.528Z,34.30
2018-09-17T13:31:29.347Z,35.10
2018-09-17T13:33:57.853Z,35.30
2018-09-17T13:36:25.999Z,35.10
2018-09-17T13:38:54.212Z,34.30
2018-09-17T13:41:22.478Z,34.20
2018-09-17T13:43:50.623Z,35.00
2018-09-17T13:46:18.816Z,35.70
2018-09-17T13:48:47.320Z,36.00
2018-09-17T13:51:15.452Z,36.40
2018-09-17T13:53:43.625Z,36.30
2018-09-17T13:56:12.657Z,35.10
2018-09-17T13:58:40.856Z,35.00
2018-09-17T14:01:09.056Z,35.70
2018-09-17T14:03:37.260Z,35.20
2018-09-17T14:06:05.412Z,34.30
2018-09-17T14:08:33.617Z,34.10
2018-09-17T14:11:01.741Z,34.70
2018-09-17T14:13:29.892Z,34.10
2018-09-17T14:16:06.288Z,33.60
2018-09-17T14:18:35.577Z,33.70
2018-09-17T14:21:04.346Z,34.30
2018-09-17T14:23:32.573Z,34.20
2018-09-17T14:26:00.766Z,33.50
2018-09-17T14:28:28.950Z,33.30
2018-09-17T14:30:57.099Z,33.20
2018-09-17T14:33:30.554Z,33.90
2018-09-17T14:35:58.763Z,34.30
2018-09-17T14:38:28.193Z,34.30
2018-09-17T14:40:56.424Z,34.70
2018-09-17T14:43:24.592Z,35.00
2018-09-17T14:45:52.705Z,34.50
2018-09-17T14:48:20.844Z,33.90
2018-09-17T14:50:50.004Z,33.70
2018-09-17T14:53:18.182Z,33.80
2018-09-17T14:55:48.479Z,34.20
2018-09-17T14:58:16.701Z,34.30
2018-09-17T15:00:44.806Z,34.20
2018-09-17T15:03:13.028Z,34.00
2018-09-17T15:05:42.368Z,33.90
2018-09-17T15:08:11.043Z,34.20
2018-09-17T15:10:39.167Z,34.20
2018-09-17T15:13:07.308Z,34.20
2018-09-17T15:15:39.748Z,34.00
2018-09-17T15:18:08.389Z,34.00
2018-09-17T15:20:37.156Z,33.40
2018-09-17T15:23:06.112Z,33.10
2018-09-17T15:25:34.336Z,32.70
2018-09-17T15:28:02.639Z,31.60
2018-09-17T15:30:30.744Z,30.60
2018-09-17T15:32:58.925Z,30.00
2018-09-17T15:35:27.106Z,29.00
2018-09-17T15:37:56.032Z,28.60
2018-09-17T15:40:24.184Z,28.20
2018-09-17T15:42:52.316Z,28.10
2018-09-17T15:45:20.470Z,28.30
2018-09-17T15:47:48.589Z,28.30
2018-09-17T15:50:16.839Z,27.90
2018-09-17T15:52:45.309Z,27.70
2018-09-17T15:55:13.481Z,27.50
2018-09-17T15:57:42.299Z,26.80
2018-09-17T16:00:10.513Z,26.40
2018-09-17T16:02:38.725Z,25.90
2018-09-17T16:05:06.920Z,25.70
2018-09-17T16:07:37.087Z,25.80
2018-09-17T16:10:06.492Z,25.90
2018-09-17T16:12:34.730Z,25.80
2018-09-17T16:15:02.939Z,25.60
2018-09-17T16:17:31.137Z,25.40
2018-09-17T16:19:59.714Z,25.30
2018-09-17T16:22:27.792Z,25.20
2018-09-17T16:24:55.980Z,25.10
2018-09-17T16:27:24.172Z,25.00
2018-09-17T16:29:52.373Z,24.80
2018-09-17T16:32:20.624Z,24.60
2018-09-17T16:34:49.168Z,24.50
2018-09-17T16:37:17.319Z,24.50
2018-09-17T16:39:45.496Z,24.50
2018-09-17T16:42:13.652Z,24.50
2018-09-17T16:44:41.869Z,24.40
2018-09-17T16:47:10.035Z,24.40
2018-09-17T16:49:38.559Z,24.30
2018-09-17T16:52:06.738Z,24.20
2018-09-17T16:54:34.881Z,24.20
2018-09-17T16:57:03.573Z,24.20
2018-09-17T16:59:31.688Z,24.00
2018-09-17T17:01:59.973Z,23.80
2018-09-17T17:04:28.240Z,23.60
2018-09-17T17:06:56.433Z,23.40
2018-09-17T17:09:24.586Z,23.30
2018-09-17T17:11:52.784Z,23.00
2018-09-17T17:14:21.150Z,22.80
2018-09-17T17:16:49.792Z,22.60
2018-09-17T17:19:18.069Z,22.40
2018-09-17T17:21:46.314Z,22.20
2018-09-17T17:24:14.459Z,22.00
2018-09-17T17:26:42.657Z,21.80
2018-09-17T17:29:10.801Z,21.70
2018-09-17T17:31:39.922Z,21.50
2018-09-17T17:34:08.095Z,21.30
2018-09-17T17:36:36.289Z,21.20
2018-09-17T17:39:07.333Z,21.10
2018-09-17T17:41:35.492Z,21.10
2018-09-17T17:44:04.053Z,21.00
2018-09-17T17:46:32.554Z,21.00
2018-09-17T17:49:00.917Z,21.00
2018-09-17T17:51:29.129Z,21.00
2018-09-17T17:53:57.300Z,20.90
2018-09-17T17:56:25.448Z,20.90
2018-09-17T17:58:53.636Z,20.80
2018-09-17T18:01:23.151Z,20.70
2018-09-17T18:03:51.307Z,20.60
2018-09-17T18:06:19.553Z,20.60
2018-09-17T18:08:48.140Z,20.60
2018-09-17T18:11:16.328Z,20.50
2018-09-17T18:13:44.484Z,20.20
2018-09-17T18:16:12.699Z,20.00
2018-09-17T18:18:40.952Z,19.80
2018-09-17T18:21:09.161Z,19.70
2018-09-17T18:23:37.408Z,19.60
2018-09-17T18:26:05.715Z,19.50
2018-09-17T18:28:33.965Z,19.30
2018-09-17T18:31:02.553Z,19.10
2018-09-17T18:33:30.713Z,19.00
2018-09-17T18:35:59.130Z,18.90
2018-09-17T18:38:27.873Z,18.70
2018-09-17T18:40:56.029Z,18.60
2018-09-17T18:43:24.202Z,18.50
2018-09-17T18:45:52.387Z,18.40
2018-09-17T18:48:20.677Z,18.50
2018-09-17T18:50:49.503Z,18.60
2018-09-17T18:53:17.762Z,18.60
2018-09-17T18:55:45.977Z,18.40
2018-09-17T18:58:14.189Z,18.30
2018-09-17T19:00:42.406Z,18.20
2018-09-17T19:03:11.874Z,18.00
2018-09-17T19:05:40.192Z,17.70
2018-09-17T19:08:08.344Z,17.50
2018-09-17T19:10:36.573Z,17.40
2018-09-17T19:13:05.045Z,17.30
2018-09-17T19:15:52.458Z,17.30
2018-09-17T19:18:21.499Z,17.40
2018-09-17T19:20:51.003Z,17.40
2018-09-17T19:23:24.617Z,17.40
2018-09-17T19:25:54.468Z,17.20
2018-09-17T19:28:28.131Z,17.10
2018-09-17T19:30:56.347Z,17.00
2018-09-17T19:33:24.722Z,16.80
2018-09-17T19:35:53.656Z,16.90
2018-09-17T19:38:27.266Z,16.90
2018-09-17T19:40:56.418Z,16.90
2018-09-17T19:43:24.629Z,16.80
2018-09-17T19:45:58.640Z,16.60
2018-09-17T19:48:27.108Z,16.30
2018-09-17T19:51:00.977Z,16.20
2018-09-17T19:53:29.175Z,16.10
2018-09-17T19:55:57.454Z,16.10
2018-09-17T19:58:31.062Z,16.10
2018-09-17T20:00:59.669Z,16.10
2018-09-17T20:03:27.788Z,16.10
2018-09-17T20:06:01.494Z,16.00
2018-09-17T20:08:29.725Z,16.00
2018-09-17T20:10:57.901Z,16.00
2018-09-17T20:13:26.016Z,16.10
2018-09-17T20:15:54.727Z,16.10
2018-09-17T20:18:22.916Z,16.00
2018-09-17T20:20:51.121Z,15.80
2018-09-17T20:23:19.589Z,15.70
2018-09-17T20:25:47.736Z,15.70
2018-09-17T20:28:15.870Z,15.70
2018-09-17T20:30:44.028Z,15.60
2018-09-17T20:33:12.190Z,15.60
2018-09-17T20:35:40.337Z,15.70
2018-09-17T20:38:08.464Z,15.70
2018-09-17T20:40:36.619Z,15.60
2018-09-17T20:43:04.780Z,15.40
2018-09-17T20:45:32.997Z,15.40
2018-09-17T20:48:01.188Z,15.40
2018-09-17T20:50:29.365Z,15.50
2018-09-17T20:52:57.762Z,15.50
2018-09-17T20:55:26.395Z,15.50
2018-09-17T20:57:54.511Z,15.40
2018-09-17T21:00:22.667Z,15.30
2018-09-17T21:02:50.848Z,15.30
2018-09-17T21:05:18.974Z,15.10
2018-09-17T21:07:48.147Z,15.10
2018-09-17T21:10:16.311Z,15.10
2018-09-17T21:12:44.529Z,15.10
2018-09-17T21:15:12.685Z,15.20
2018-09-17T21:17:40.837Z,15.20
2018-09-17T21:20:09.020Z,15.20
2018-09-17T21:22:37.283Z,15.10
2018-09-17T21:25:05.773Z,15.00
2018-09-17T21:27:33.953Z,14.70
2018-09-17T21:30:02.241Z,14.60
2018-09-17T21:32:30.456Z,14.50
2018-09-17T21:34:58.648Z,14.50
2018-09-17T21:37:27.900Z,14.50
2018-09-17T21:39:56.072Z,14.50
2018-09-17T21:42:24.217Z,14.60
2018-09-17T21:44:52.340Z,14.60
2018-09-17T21:47:20.538Z,14.40
2018-09-17T21:49:48.712Z,14.20
2018-09-17T21:52:16.978Z,14.10
2018-09-17T21:54:45.481Z,13.90
2018-09-17T21:57:13.656Z,13.80
2018-09-17T21:59:41.820Z,13.80
2018-09-17T22:02:09.974Z,13.80
2018-09-17T22:04:38.181Z,13.80
2018-09-17T22:07:06.369Z,13.90
2018-09-17T22:09:35.052Z,13.90
2018-09-17T22:12:04.933Z,14.00
2018-09-17T22:14:34.175Z,14.00
2018-09-17T22:17:02.296Z,14.10
2018-09-17T22:19:30.496Z,14.30
2018-09-17T22:21:58.678Z,14.40
2018-09-17T22:24:26.885Z,14.40
2018-09-17T22:26:55.076Z,14.30
2018-09-17T22:29:24.842Z,14.10
2018-09-17T22:31:52.996Z,14.00
2018-09-17T22:34:21.138Z,13.90
2018-09-17T22:36:49.312Z,13.80
2018-09-17T22:39:18.096Z,13.70
2018-09-17T22:41:46.320Z,13.60
2018-09-17T22:44:14.876Z,13.50
2018-09-17T22:46:44.115Z,13.50
2018-09-17T22:49:12.581Z,13.60
2018-09-17T22:51:40.728Z,13.60
2018-09-17T22:54:08.855Z,13.50
2018-09-17T22:56:37.027Z,13.50
2018-09-17T22:59:05.408Z,13.40
2018-09-17T23:01:33.839Z,13.40
2018-09-17T23:04:02.033Z,13.30
2018-09-17T23:06:30.227Z,13.10
2018-09-17T23:08:58.839Z,13.20
2018-09-17T23:11:27.031Z,13.40
2018-09-17T23:13:55.185Z,13.40
2018-09-17T23:16:23.974Z,13.40
2018-09-17T23:18:52.103Z,13.40
2018-09-17T23:21:20.512Z,13.40
2018-09-17T23:23:49.836Z,13.50
2018-09-17T23:26:18.038Z,13.50
2018-09-17T23:28:46.342Z,13.60
2018-09-17T23:31:14.488Z,13.60
2018-09-17T23:33:42.678Z,13.70
2018-09-17T23:36:10.851Z,13.60
2018-09-17T23:38:40.104Z,13.60
2018-09-17T23:41:08.332Z,13.50
2018-09-17T23:43:36.830Z,13.60
2018-09-17T23:46:05.044Z,13.30
2018-09-17T23:48:34.451Z,13.10
2018-09-17T23:51:03.612Z,12.90
2018-09-17T23:53:31.990Z,12.70
2018-09-17T23:56:00.186Z,12.50
2018-09-17T23:58:28.380Z,12.50
